Time;durP1;ratioP1;P1;durP2;ratioP2;P2;SDS_P1;SDS_P2;PMS_P1;PMS_P2;Temp;Humidity;BMP_temperature;BMP_pressure;BME280_temperature;BME280_humidity;BME280_pressure;Samples;Min_cycle;Max_cycle;Signal;HPM_P1;HPM_P2
2023/10/15 00:00:15;;;;;;;;;;;20.00;43.70;;;;;;5051731;28;19927;-68
2023/10/15 00:02:42;;;;;;;;;;;19.90;43.60;;;;;;5049501;28;19971;-68
2023/10/15 00:05:10;;;;;;;;;;;19.90;43.70;;;;;;5050602;28;19967;-68
2023/10/15 00:07:37;;;;;;;;;;;19.90;43.70;;;;;;5053182;28;19921;-67
2023/10/15 00:10:10;;;;;;;;;;;20.00;43.70;;;;;;5050966;28;19924;-68
2023/10/15 00:12:37;;;;;;;;;;;20.00;43.70;;;;;;5051787;28;19971;-68
2023/10/15 00:15:05;;;;;;;;;;;19.90;43.70;;;;;;5050995;28;19967;-68
2023/10/15 00:17:31;;;;;;;;;;;19.90;43.70;;;;;;5047233;28;19921;-67
2023/10/15 00:19:58;;;;;;;;;;;19.90;43.70;;;;;;5050630;28;19936;-67
2023/10/15 00:22:25;;;;;;;;;;;19.90;43.70;;;;;;5050678;28;19921;-68
2023/10/15 00:24:51;;;;;;;;;;;19.90;43.70;;;;;;5052360;28;19966;-67
2023/10/15 00:27:20;;;;;;;;;;;19.90;43.70;;;;;;5051543;28;19974;-68
2023/10/15 00:29:48;;;;;;;;;;;19.90;43.70;;;;;;5040596;28;19964;-68
2023/10/15 00:32:14;;;;;;;;;;;19.90;43.70;;;;;;5050534;28;19963;-68
2023/10/15 00:34:41;;;;;;;;;;;19.90;43.70;;;;;;5047554;28;19929;-67
2023/10/15 00:37:08;;;;;;;;;;;19.90;43.70;;;;;;5051494;28;19936;-67
2023/10/15 00:39:41;;;;;;;;;;;19.90;43.70;;;;;;5049248;28;20000;-67
2023/10/15 00:42:08;;;;;;;;;;;19.90;43.70;;;;;;5051272;28;19971;-67
2023/10/15 00:44:36;;;;;;;;;;;19.90;43.70;;;;;;5052494;28;19920;-67
2023/10/15 00:47:03;;;;;;;;;;;19.90;43.60;;;;;;5050782;28;19932;-67
2023/10/15 00:49:33;;;;;;;;;;;19.90;43.70;;;;;;5052206;28;19928;-66
2023/10/15 00:52:03;;;;;;;;;;;19.90;43.60;;;;;;5050286;28;19998;-67
2023/10/15 00:54:33;;;;;;;;;;;19.90;43.60;;;;;;5051774;28;19925;-67
2023/10/15 00:57:25;;;;;;;;;;;19.90;43.60;;;;;;5045538;28;19924;-67
2023/10/15 00:59:48;;;;;;;;;;;19.90;43.60;;;;;;5049299;28;20031;-67
2023/10/15 01:02:21;;;;;;;;;;;19.90;43.60;;;;;;5050569;28;19921;-67
2023/10/15 01:04:50;;;;;;;;;;;19.90;43.60;;;;;;5049932;28;19921;-67
2023/10/15 01:07:32;;;;;;;;;;;19.90;43.50;;;;;;5049987;28;19931;-67
2023/10/15 01:09:59;;;;;;;;;;;19.90;43.50;;;;;;5050717;28;19924;-65
2023/10/15 01:12:30;;;;;;;;;;;19.90;43.60;;;;;;5050389;28;19921;-67
2023/10/15 01:14:59;;;;;;;;;;;19.90;43.60;;;;;;5050840;28;19920;-66
2023/10/15 01:17:36;;;;;;;;;;;19.90;43.50;;;;;;5051089;28;20227;-66
2023/10/15 01:20:05;;;;;;;;;;;19.90;43.50;;;;;;5048271;28;20358;-66
2023/10/15 01:22:32;;;;;;;;;;;19.90;43.40;;;;;;5047959;28;19929;-66
2023/10/15 01:25:00;;;;;;;;;;;19.90;43.40;;;;;;5048253;28;19925;-66
2023/10/15 01:27:29;;;;;;;;;;;19.90;43.40;;;;;;5049771;28;19928;-67
2023/10/15 01:29:58;;;;;;;;;;;19.80;43.30;;;;;;5045911;28;19920;-67
2023/10/15 01:32:26;;;;;;;;;;;19.90;43.30;;;;;;5049916;28;20273;-66
2023/10/15 01:34:55;;;;;;;;;;;19.90;43.30;;;;;;5050882;28;19921;-64
2023/10/15 01:37:24;;;;;;;;;;;19.90;43.40;;;;;;5051268;28;19921;-65
2023/10/15 01:39:51;;;;;;;;;;;19.80;43.20;;;;;;5051030;28;19985;-65
2023/10/15 01:42:34;;;;;;;;;;;19.80;43.20;;;;;;5051086;28;19976;-65
2023/10/15 01:45:13;;;;;;;;;;;19.80;43.30;;;;;;5048068;28;19983;-65
2023/10/15 01:47:46;;;;;;;;;;;19.80;43.30;;;;;;5050171;28;20012;-65
2023/10/15 01:50:15;;;;;;;;;;;19.80;43.40;;;;;;5050540;28;19920;-66
2023/10/15 01:52:42;;;;;;;;;;;19.80;43.40;;;;;;5049757;28;19978;-65
2023/10/15 01:55:09;;;;;;;;;;;19.80;43.40;;;;;;5050439;28;19920;-65
2023/10/15 01:57:38;;;;;;;;;;;19.80;43.40;;;;;;5050196;28;20362;-65
2023/10/15 02:00:12;;;;;;;;;;;19.80;43.40;;;;;;5048322;28;19928;-64
2023/10/15 02:02:40;;;;;;;;;;;19.80;43.40;;;;;;5049941;28;20106;-65
2023/10/15 02:05:16;;;;;;;;;;;19.80;43.40;;;;;;5049532;28;19992;-64
2023/10/15 02:07:44;;;;;;;;;;;19.80;43.40;;;;;;5048095;28;19955;-65
2023/10/15 02:10:13;;;;;;;;;;;19.80;43.40;;;;;;5050092;28;20011;-65
2023/10/15 02:12:41;;;;;;;;;;;19.80;43.20;;;;;;5048688;28;19975;-65
2023/10/15 02:15:19;;;;;;;;;;;19.70;42.90;;;;;;5046197;28;19925;-65
2023/10/15 02:17:52;;;;;;;;;;;19.70;42.90;;;;;;5048930;28;19920;-65
2023/10/15 02:20:26;;;;;;;;;;;19.70;43.10;;;;;;5048900;28;19925;-65
2023/10/15 02:22:54;;;;;;;;;;;19.70;43.30;;;;;;5051582;28;19927;-65
2023/10/15 02:25:25;;;;;;;;;;;19.70;43.30;;;;;;5047515;28;19927;-66
2023/10/15 02:27:54;;;;;;;;;;;19.70;43.40;;;;;;5050368;28;20432;-66
2023/10/15 02:30:20;;;;;;;;;;;19.70;43.40;;;;;;5050471;28;19927;-66
2023/10/15 02:32:53;;;;;;;;;;;19.70;43.50;;;;;;5045461;28;19928;-66
2023/10/15 02:35:24;;;;;;;;;;;19.70;43.50;;;;;;5044795;28;19960;-66
2023/10/15 02:37:51;;;;;;;;;;;19.70;43.50;;;;;;5050404;28;19920;-66
2023/10/15 02:40:17;;;;;;;;;;;19.70;43.50;;;;;;5050365;28;19951;-66
2023/10/15 02:42:52;;;;;;;;;;;19.70;43.50;;;;;;5050074;28;19928;-66
2023/10/15 02:45:23;;;;;;;;;;;19.70;43.50;;;;;;5049211;28;19924;-67
2023/10/15 02:47:54;;;;;;;;;;;19.70;43.50;;;;;;5049692;28;19927;-67
2023/10/15 02:50:26;;;;;;;;;;;19.70;43.50;;;;;;5046158;28;19927;-67
2023/10/15 02:52:54;;;;;;;;;;;19.70;43.50;;;;;;5051643;28;19931;-67
2023/10/15 02:55:26;;;;;;;;;;;19.70;43.50;;;;;;5041093;28;19982;-66
2023/10/15 02:58:00;;;;;;;;;;;19.70;43.50;;;;;;5049764;28;19920;-66
2023/10/15 03:00:29;;;;;;;;;;;19.70;43.50;;;;;;5044375;28;19943;-66
2023/10/15 03:02:56;;;;;;;;;;;19.70;43.50;;;;;;5048921;28;19925;-66
2023/10/15 03:05:30;;;;;;;;;;;19.70;43.50;;;;;;5043519;28;19984;-65
2023/10/15 03:07:59;;;;;;;;;;;19.70;43.40;;;;;;5047335;28;19932;-66
2023/10/15 03:10:30;;;;;;;;;;;19.70;43.40;;;;;;5048951;28;19925;-65
2023/10/15 03:12:59;;;;;;;;;;;19.70;43.40;;;;;;5048341;28;19986;-65
2023/10/15 03:15:26;;;;;;;;;;;19.70;43.40;;;;;;5047145;28;19927;-66
2023/10/15 03:17:56;;;;;;;;;;;19.70;43.40;;;;;;5048976;28;19968;-65
2023/10/15 03:20:26;;;;;;;;;;;19.70;43.40;;;;;;5046696;28;19929;-67
2023/10/15 03:22:58;;;;;;;;;;;19.70;43.40;;;;;;5047667;28;19933;-65
2023/10/15 03:25:26;;;;;;;;;;;19.70;43.40;;;;;;5049557;28;19935;-66
2023/10/15 03:28:00;;;;;;;;;;;19.70;43.40;;;;;;5048474;28;19932;-66
2023/10/15 03:30:27;;;;;;;;;;;19.70;43.40;;;;;;5050470;28;19920;-66
2023/10/15 03:33:00;;;;;;;;;;;19.70;43.50;;;;;;5049122;28;19948;-66
2023/10/15 03:35:32;;;;;;;;;;;19.60;43.40;;;;;;5047831;28;19970;-66
2023/10/15 03:38:04;;;;;;;;;;;19.70;43.40;;;;;;5038536;28;19927;-66
2023/10/15 03:40:32;;;;;;;;;;;19.70;43.50;;;;;;5049285;28;19924;-65
2023/10/15 03:43:04;;;;;;;;;;;19.70;43.50;;;;;;5042154;28;19990;-65
2023/10/15 03:45:33;;;;;;;;;;;19.70;43.50;;;;;;5048967;28;19927;-66
2023/10/15 03:48:02;;;;;;;;;;;19.60;43.40;;;;;;5049649;28;19920;-66
2023/10/15 03:50:29;;;;;;;;;;;19.60;43.40;;;;;;5048597;28;19921;-66
2023/10/15 03:52:57;;;;;;;;;;;19.70;43.50;;;;;;5043127;28;19975;-65
2023/10/15 03:55:24;;;;;;;;;;;19.60;43.40;;;;;;5044936;28;20148;-66
2023/10/15 03:57:52;;;;;;;;;;;19.60;43.20;;;;;;5043821;28;20012;-66
2023/10/15 04:00:34;;;;;;;;;;;19.60;43.30;;;;;;5049533;28;19920;-66
2023/10/15 04:03:06;;;;;;;;;;;19.60;43.30;;;;;;5048801;28;19920;-66
2023/10/15 04:05:33;;;;;;;;;;;19.60;43.30;;;;;;5048385;28;19921;-66
2023/10/15 04:08:00;;;;;;;;;;;19.60;43.30;;;;;;5045652;28;19978;-66
2023/10/15 04:10:33;;;;;;;;;;;19.60;43.30;;;;;;5049558;28;19921;-67
2023/10/15 04:13:00;;;;;;;;;;;19.60;43.30;;;;;;5048219;28;20011;-66
2023/10/15 04:15:30;;;;;;;;;;;19.60;43.30;;;;;;5048977;28;19931;-67
2023/10/15 04:17:57;;;;;;;;;;;19.60;43.30;;;;;;5048926;28;19964;-66
2023/10/15 04:20:33;;;;;;;;;;;19.60;43.30;;;;;;5046307;28;19931;-67
2023/10/15 04:22:59;;;;;;;;;;;19.60;43.30;;;;;;5046007;28;20278;-66
2023/10/15 04:25:26;;;;;;;;;;;19.60;43.20;;;;;;5049163;28;19921;-66
2023/10/15 04:27:53;;;;;;;;;;;19.60;43.20;;;;;;5049250;28;20019;-65
2023/10/15 04:30:20;;;;;;;;;;;19.60;43.20;;;;;;5047803;28;19944;-66
2023/10/15 04:32:47;;;;;;;;;;;19.50;43.10;;;;;;5048798;28;19920;-66
2023/10/15 04:35:17;;;;;;;;;;;19.60;43.20;;;;;;5045848;28;19925;-66
2023/10/15 04:37:47;;;;;;;;;;;19.60;43.20;;;;;;5050322;28;20011;-66
2023/10/15 04:40:16;;;;;;;;;;;19.60;43.20;;;;;;5046704;28;20517;-66
2023/10/15 04:42:48;;;;;;;;;;;19.60;43.20;;;;;;5049808;28;20438;-67
2023/10/15 04:45:23;;;;;;;;;;;19.60;43.20;;;;;;5050839;28;19925;-66
2023/10/15 04:47:52;;;;;;;;;;;19.60;43.10;;;;;;5049962;28;19921;-66
2023/10/15 04:50:19;;;;;;;;;;;19.60;43.10;;;;;;5051899;28;19921;-66
2023/10/15 04:52:47;;;;;;;;;;;19.50;43.00;;;;;;5051628;28;20053;-66
2023/10/15 04:55:17;;;;;;;;;;;19.50;43.00;;;;;;5052602;28;19928;-65
2023/10/15 04:57:44;;;;;;;;;;;19.50;43.00;;;;;;5051516;28;20318;-65
2023/10/15 05:00:12;;;;;;;;;;;19.60;43.00;;;;;;5048841;28;19925;-65
2023/10/15 05:02:39;;;;;;;;;;;19.60;43.00;;;;;;5046131;28;19924;-65
2023/10/15 05:05:06;;;;;;;;;;;19.50;43.00;;;;;;5049326;28;19932;-65
2023/10/15 05:07:36;;;;;;;;;;;19.50;42.90;;;;;;5053085;28;19951;-65
2023/10/15 05:10:04;;;;;;;;;;;19.50;42.80;;;;;;5051593;28;19921;-66
2023/10/15 05:12:31;;;;;;;;;;;19.50;43.40;;;;;;5051700;28;19967;-66
2023/10/15 05:14:58;;;;;;;;;;;19.50;42.90;;;;;;5047800;28;19921;-65
2023/10/15 05:17:25;;;;;;;;;;;19.50;42.90;;;;;;5047932;28;19947;-65
2023/10/15 05:19:52;;;;;;;;;;;19.50;42.90;;;;;;5050604;28;19920;-65
2023/10/15 05:22:19;;;;;;;;;;;19.50;42.90;;;;;;5050902;28;20283;-65
2023/10/15 05:24:46;;;;;;;;;;;19.50;42.90;;;;;;5052054;28;20352;-65
2023/10/15 05:27:14;;;;;;;;;;;19.50;42.90;;;;;;5051754;28;19967;-66
2023/10/15 05:29:41;;;;;;;;;;;19.50;42.90;;;;;;5053830;28;19921;-65
2023/10/15 05:32:08;;;;;;;;;;;19.50;43.00;;;;;;5053244;28;19991;-65
2023/10/15 05:34:34;;;;;;;;;;;19.50;42.90;;;;;;5043338;28;19924;-65
2023/10/15 05:37:02;;;;;;;;;;;19.50;42.90;;;;;;5051922;28;19998;-64
2023/10/15 05:39:28;;;;;;;;;;;19.50;43.00;;;;;;5051569;28;20453;-65
2023/10/15 05:41:55;;;;;;;;;;;19.50;43.00;;;;;;5051948;28;19924;-65
2023/10/15 05:44:23;;;;;;;;;;;19.50;43.00;;;;;;5049018;28;20202;-66
2023/10/15 05:46:50;;;;;;;;;;;19.50;43.00;;;;;;5051313;28;19925;-66
2023/10/15 05:49:17;;;;;;;;;;;19.50;43.00;;;;;;5050064;28;20018;-65
2023/10/15 05:51:44;;;;;;;;;;;19.50;43.00;;;;;;5051372;28;20068;-65
2023/10/15 05:54:12;;;;;;;;;;;19.50;43.00;;;;;;5051342;28;20268;-66
2023/10/15 05:56:39;;;;;;;;;;;19.50;43.00;;;;;;5051287;28;19921;-66
2023/10/15 05:59:06;;;;;;;;;;;19.50;43.10;;;;;;5050589;28;19929;-66
2023/10/15 06:01:35;;;;;;;;;;;19.50;43.00;;;;;;5051381;28;20007;-66
2023/10/15 06:04:03;;;;;;;;;;;19.50;43.00;;;;;;5046929;28;19927;-66
2023/10/15 06:06:29;;;;;;;;;;;19.50;43.00;;;;;;5050357;28;20019;-66
2023/10/15 06:08:59;;;;;;;;;;;19.50;43.00;;;;;;5047929;28;19959;-66
2023/10/15 06:11:26;;;;;;;;;;;19.50;43.00;;;;;;5044837;28;20018;-66
2023/10/15 06:13:52;;;;;;;;;;;19.40;42.90;;;;;;5049487;28;19929;-66
2023/10/15 06:16:19;;;;;;;;;;;19.40;42.90;;;;;;5050085;28;19925;-66
2023/10/15 06:18:47;;;;;;;;;;;19.40;42.90;;;;;;5051863;28;20014;-66
2023/10/15 06:21:15;;;;;;;;;;;19.40;42.80;;;;;;5048283;28;19972;-66
2023/10/15 06:23:42;;;;;;;;;;;19.40;42.90;;;;;;5044005;28;19925;-66
2023/10/15 06:26:09;;;;;;;;;;;19.40;42.90;;;;;;5048156;28;19924;-65
2023/10/15 06:28:36;;;;;;;;;;;19.40;42.80;;;;;;5045532;28;19947;-66
2023/10/15 06:31:04;;;;;;;;;;;19.40;42.80;;;;;;5038280;28;19921;-65
2023/10/15 06:33:31;;;;;;;;;;;19.40;43.10;;;;;;5045672;28;19923;-66
2023/10/15 06:35:59;;;;;;;;;;;19.40;42.80;;;;;;5047142;28;19921;-66
2023/10/15 06:38:26;;;;;;;;;;;19.40;42.80;;;;;;5045874;28;19932;-64
2023/10/15 06:40:53;;;;;;;;;;;19.40;42.80;;;;;;5045808;28;19920;-65
2023/10/15 06:43:19;;;;;;;;;;;19.40;42.80;;;;;;5046445;28;19925;-66
2023/10/15 06:45:48;;;;;;;;;;;19.40;42.80;;;;;;5045045;28;21097;-65
2023/10/15 06:48:15;;;;;;;;;;;19.40;42.80;;;;;;5046467;28;19920;-65
2023/10/15 06:50:42;;;;;;;;;;;19.40;42.70;;;;;;5048783;28;19920;-66
2023/10/15 06:53:10;;;;;;;;;;;19.40;42.70;;;;;;5039776;28;19975;-66
2023/10/15 06:55:37;;;;;;;;;;;19.40;42.70;;;;;;5045794;28;19921;-66
2023/10/15 06:58:04;;;;;;;;;;;19.40;42.80;;;;;;5043383;28;20389;-66
2023/10/15 07:00:32;;;;;;;;;;;19.40;42.80;;;;;;5046044;28;19949;-66
2023/10/15 07:02:59;;;;;;;;;;;19.40;42.90;;;;;;5044219;28;19982;-66
2023/10/15 07:05:26;;;;;;;;;;;19.40;42.90;;;;;;5047396;28;20188;-66
2023/10/15 07:07:53;;;;;;;;;;;19.40;42.90;;;;;;5047401;28;20422;-66
2023/10/15 07:10:21;;;;;;;;;;;19.40;42.90;;;;;;5043208;28;20366;-66
2023/10/15 07:12:50;;;;;;;;;;;19.40;42.90;;;;;;5048673;28;19924;-65
2023/10/15 07:15:17;;;;;;;;;;;19.40;42.90;;;;;;5040784;28;19921;-66
2023/10/15 07:17:44;;;;;;;;;;;19.40;42.80;;;;;;5048277;28;19936;-65
2023/10/15 07:20:16;;;;;;;;;;;19.40;42.80;;;;;;5046864;28;19925;-66
2023/10/15 07:22:44;;;;;;;;;;;19.40;42.90;;;;;;5043662;28;19920;-66
2023/10/15 07:25:11;;;;;;;;;;;19.40;42.90;;;;;;5047559;28;19927;-66
2023/10/15 07:27:41;;;;;;;;;;;19.40;42.90;;;;;;5046940;28;19921;-66
2023/10/15 07:30:11;;;;;;;;;;;19.40;43.00;;;;;;5043552;28;19931;-65
2023/10/15 07:32:38;;;;;;;;;;;19.40;43.00;;;;;;5042926;28;19920;-66
2023/10/15 07:35:06;;;;;;;;;;;19.40;43.00;;;;;;5046861;28;19936;-66
2023/10/15 07:37:34;;;;;;;;;;;19.30;42.90;;;;;;5046936;28;19946;-66
2023/10/15 07:40:03;;;;;;;;;;;19.30;42.90;;;;;;5047295;28;20366;-65
2023/10/15 07:42:30;;;;;;;;;;;19.40;43.00;;;;;;5046170;28;19924;-66
2023/10/15 07:44:59;;;;;;;;;;;19.40;43.10;;;;;;5038557;28;19932;-65
2023/10/15 07:47:26;;;;;;;;;;;19.40;43.10;;;;;;5047426;28;19928;-65
2023/10/15 07:49:53;;;;;;;;;;;19.30;43.00;;;;;;5044620;28;19921;-66
2023/10/15 07:52:20;;;;;;;;;;;19.40;43.10;;;;;;5048021;28;19920;-65
2023/10/15 07:54:47;;;;;;;;;;;19.40;43.10;;;;;;5046035;28;20526;-65
2023/10/15 07:57:14;;;;;;;;;;;19.40;43.10;;;;;;5043045;28;19921;-65
2023/10/15 07:59:40;;;;;;;;;;;19.30;43.00;;;;;;5045078;28;19921;-65
2023/10/15 08:02:09;;;;;;;;;;;19.40;43.10;;;;;;5044073;28;19932;-64
2023/10/15 08:04:35;;;;;;;;;;;19.30;42.90;;;;;;5043935;28;19932;-65
2023/10/15 08:07:02;;;;;;;;;;;19.30;42.90;;;;;;5047527;28;19982;-65
2023/10/15 08:09:29;;;;;;;;;;;19.30;42.90;;;;;;5039687;28;19995;-66
2023/10/15 08:11:56;;;;;;;;;;;19.30;42.90;;;;;;5050099;28;19928;-66
2023/10/15 08:14:23;;;;;;;;;;;19.30;42.90;;;;;;5051633;28;20370;-66
2023/10/15 08:16:50;;;;;;;;;;;19.30;42.80;;;;;;5050267;28;20215;-65
2023/10/15 08:19:18;;;;;;;;;;;19.30;42.80;;;;;;5050653;28;19928;-66
2023/10/15 08:21:45;;;;;;;;;;;19.30;42.80;;;;;;5049448;28;19920;-66
2023/10/15 08:24:14;;;;;;;;;;;19.30;42.80;;;;;;5046749;28;19927;-66
2023/10/15 08:26:41;;;;;;;;;;;19.30;42.80;;;;;;5044476;28;19975;-67
2023/10/15 08:29:09;;;;;;;;;;;19.30;42.70;;;;;;5051697;28;19928;-66
2023/10/15 08:31:36;;;;;;;;;;;19.30;42.80;;;;;;5045268;28;19925;-66
2023/10/15 08:34:03;;;;;;;;;;;19.30;42.80;;;;;;5048692;28;19971;-66
2023/10/15 08:36:32;;;;;;;;;;;19.30;42.80;;;;;;5050666;28;20026;-66
2023/10/15 08:39:03;;;;;;;;;;;19.30;42.80;;;;;;5052241;28;19921;-66
2023/10/15 08:41:29;;;;;;;;;;;19.30;42.80;;;;;;5052010;28;19970;-66
2023/10/15 08:43:56;;;;;;;;;;;19.30;42.80;;;;;;5051592;28;20206;-66
2023/10/15 08:46:23;;;;;;;;;;;19.30;42.90;;;;;;5051269;28;19920;-66
2023/10/15 08:48:51;;;;;;;;;;;19.30;42.90;;;;;;5051931;28;19974;-66
2023/10/15 08:51:21;;;;;;;;;;;19.30;42.90;;;;;;5050356;28;19925;-66
2023/10/15 08:53:49;;;;;;;;;;;19.30;42.90;;;;;;5051389;28;19960;-66
2023/10/15 08:56:16;;;;;;;;;;;19.30;42.90;;;;;;5050631;28;19920;-66
2023/10/15 08:58:43;;;;;;;;;;;19.30;42.90;;;;;;5050943;28;20465;-66
2023/10/15 09:01:13;;;;;;;;;;;19.30;42.90;;;;;;5050889;28;19971;-66
2023/10/15 09:03:40;;;;;;;;;;;19.30;42.90;;;;;;5052660;28;19982;-66
2023/10/15 09:06:07;;;;;;;;;;;19.30;43.50;;;;;;5051552;28;19928;-66
2023/10/15 09:08:35;;;;;;;;;;;19.40;43.00;;;;;;5049733;28;20011;-66
2023/10/15 09:11:04;;;;;;;;;;;19.30;43.00;;;;;;5050599;28;19932;-67
2023/10/15 09:13:36;;;;;;;;;;;19.30;43.00;;;;;;5051386;28;19921;-66
2023/10/15 09:16:03;;;;;;;;;;;19.30;43.00;;;;;;5035323;28;19921;-67
2023/10/15 09:18:35;;;;;;;;;;;19.30;43.00;;;;;;5051996;28;19927;-66
2023/10/15 09:21:03;;;;;;;;;;;19.30;43.00;;;;;;5050364;28;20458;-67
2023/10/15 09:23:31;;;;;;;;;;;19.40;43.10;;;;;;5045508;28;19921;-66
2023/10/15 09:25:58;;;;;;;;;;;19.40;43.20;;;;;;5051110;28;19928;-66
2023/10/15 09:28:27;;;;;;;;;;;19.30;43.00;;;;;;5051864;28;19932;-66
2023/10/15 09:31:02;;;;;;;;;;;19.30;42.90;;;;;;5050707;28;19968;-66
2023/10/15 09:33:29;;;;;;;;;;;19.30;42.60;;;;;;5046934;28;19925;-65
2023/10/15 09:35:56;;;;;;;;;;;19.20;42.60;;;;;;5053151;28;19920;-66
2023/10/15 09:38:23;;;;;;;;;;;19.20;42.90;;;;;;5053047;28;19920;-66
2023/10/15 09:40:49;;;;;;;;;;;19.20;43.10;;;;;;5052568;28;19925;-66
2023/10/15 09:43:17;;;;;;;;;;;19.20;43.20;;;;;;5047482;28;19927;-66
2023/10/15 09:45:45;;;;;;;;;;;19.20;43.30;;;;;;5041923;28;19928;-67
2023/10/15 09:48:12;;;;;;;;;;;19.20;43.40;;;;;;5052343;28;19921;-65
2023/10/15 09:50:42;;;;;;;;;;;19.20;43.50;;;;;;5053125;28;20887;-66
2023/10/15 09:53:12;;;;;;;;;;;19.20;43.60;;;;;;5050029;28;19956;-67
2023/10/15 09:55:40;;;;;;;;;;;19.20;43.70;;;;;;5053826;28;20015;-67
2023/10/15 09:58:09;;;;;;;;;;;19.20;43.70;;;;;;5047827;28;20233;-67
2023/10/15 10:00:47;;;;;;;;;;;19.20;43.80;;;;;;5051546;28;19924;-66
2023/10/15 10:03:25;;;;;;;;;;;19.20;43.80;;;;;;5029920;28;19952;-67
2023/10/15 10:05:57;;;;;;;;;;;19.20;43.80;;;;;;5048710;28;20355;-67
2023/10/15 10:08:28;;;;;;;;;;;19.20;43.80;;;;;;5053606;28;19927;-66
2023/10/15 10:11:01;;;;;;;;;;;19.30;43.90;;;;;;5053194;28;19933;-66
2023/10/15 10:13:42;;;;;;;;;;;19.30;43.90;;;;;;5048257;28;19925;-66
2023/10/15 10:16:11;;;;;;;;;;;19.30;44.00;;;;;;5049320;28;19921;-66
2023/10/15 10:18:39;;;;;;;;;;;19.30;44.00;;;;;;5050742;28;19925;-66
2023/10/15 10:21:11;;;;;;;;;;;19.30;44.00;;;;;;5051299;28;19921;-66
2023/10/15 10:23:38;;;;;;;;;;;19.30;44.00;;;;;;5042648;28;19931;-67
2023/10/15 10:26:12;;;;;;;;;;;19.40;44.20;;;;;;5050246;28;20434;-66
2023/10/15 10:28:38;;;;;;;;;;;19.40;44.50;;;;;;5051931;28;19920;-64
2023/10/15 10:31:07;;;;;;;;;;;19.40;44.70;;;;;;5051446;28;19928;-66
2023/10/15 10:33:48;;;;;;;;;;;19.40;44.80;;;;;;5049726;28;19955;-65
2023/10/15 10:36:16;;;;;;;;;;;19.40;44.80;;;;;;5041528;28;19925;-66
2023/10/15 10:38:42;;;;;;;;;;;19.40;44.80;;;;;;5040973;28;19932;-66
2023/10/15 10:41:13;;;;;;;;;;;19.40;45.30;;;;;;5051811;28;19928;-67
2023/10/15 10:43:40;;;;;;;;;;;19.40;44.80;;;;;;5051002;28;19920;-65
2023/10/15 10:46:07;;;;;;;;;;;19.40;44.70;;;;;;5044619;28;19925;-67
2023/10/15 10:48:37;;;;;;;;;;;19.40;44.70;;;;;;5037708;28;19975;-66
2023/10/15 10:51:21;;;;;;;;;;;19.40;45.30;;;;;;5051359;28;19921;-66
2023/10/15 10:54:06;;;;;;;;;;;19.40;44.70;;;;;;5052692;28;19985;-66
2023/10/15 10:56:55;;;;;;;;;;;19.50;44.70;;;;;;5044356;28;19921;-66
2023/10/15 10:59:22;;;;;;;;;;;19.50;44.70;;;;;;5035852;28;19925;-66
2023/10/15 11:01:48;;;;;;;;;;;19.50;44.70;;;;;;5047965;28;19967;-66
2023/10/15 11:04:15;;;;;;;;;;;19.50;44.70;;;;;;5048596;28;19981;-66
2023/10/15 11:06:45;;;;;;;;;;;19.50;44.70;;;;;;5043564;28;19932;-65
2023/10/15 11:09:15;;;;;;;;;;;19.50;44.60;;;;;;5048697;28;19928;-65
2023/10/15 11:11:42;;;;;;;;;;;19.50;44.70;;;;;;5048509;28;19921;-65
2023/10/15 11:14:12;;;;;;;;;;;19.50;44.70;;;;;;5048671;28;19920;-66
2023/10/15 11:16:39;;;;;;;;;;;19.50;44.70;;;;;;5045676;28;19920;-66
2023/10/15 11:19:13;;;;;;;;;;;19.50;44.70;;;;;;5041392;28;19920;-65
2023/10/15 11:21:40;;;;;;;;;;;19.60;44.80;;;;;;5044586;28;19928;-66
2023/10/15 11:24:09;;;;;;;;;;;19.60;44.90;;;;;;5042377;28;19921;-66
2023/10/15 11:26:36;;;;;;;;;;;19.50;44.80;;;;;;5051297;28;19979;-66
2023/10/15 11:29:04;;;;;;;;;;;19.50;44.80;;;;;;5044483;28;19920;-65
2023/10/15 11:31:30;;;;;;;;;;;19.60;45.00;;;;;;5038973;28;19948;-65
2023/10/15 11:33:57;;;;;;;;;;;19.60;45.00;;;;;;5048491;28;19931;-66
2023/10/15 11:36:24;;;;;;;;;;;19.60;45.00;;;;;;5046304;28;20369;-66
2023/10/15 11:38:52;;;;;;;;;;;19.60;45.10;;;;;;5042759;28;19959;-67
2023/10/15 11:41:21;;;;;;;;;;;19.60;45.10;;;;;;5036083;28;19975;-64
2023/10/15 11:43:49;;;;;;;;;;;19.60;45.10;;;;;;5040538;28;19928;-68
2023/10/15 11:46:19;;;;;;;;;;;19.60;45.20;;;;;;5054746;28;19920;-67
2023/10/15 11:48:46;;;;;;;;;;;19.60;45.30;;;;;;5052839;28;20355;-66
2023/10/15 11:51:12;;;;;;;;;;;19.70;45.60;;;;;;5055566;28;19920;-66
2023/10/15 11:53:41;;;;;;;;;;;19.70;45.70;;;;;;5046348;28;19925;-66
2023/10/15 11:56:16;;;;;;;;;;;19.70;45.80;;;;;;5062348;28;19924;-66
2023/10/15 11:58:45;;;;;;;;;;;19.70;45.90;;;;;;5053324;28;19990;-66
2023/10/15 12:01:14;;;;;;;;;;;19.80;46.00;;;;;;5051786;28;20130;-65
2023/10/15 12:03:41;;;;;;;;;;;19.80;46.10;;;;;;5048687;28;19956;-66
2023/10/15 12:06:08;;;;;;;;;;;19.80;46.10;;;;;;5055075;28;20552;-67
2023/10/15 12:08:35;;;;;;;;;;;19.80;46.30;;;;;;5051731;28;19963;-65
2023/10/15 12:11:01;;;;;;;;;;;19.80;46.20;;;;;;5050224;28;19959;-66
2023/10/15 12:13:29;;;;;;;;;;;19.90;46.30;;;;;;5054387;28;20303;-67
2023/10/15 12:15:57;;;;;;;;;;;19.90;46.30;;;;;;5046182;28;19920;-68
2023/10/15 12:18:25;;;;;;;;;;;19.90;46.30;;;;;;5052708;28;19935;-68
2023/10/15 12:20:52;;;;;;;;;;;19.90;46.40;;;;;;5054313;28;20012;-67
2023/10/15 12:23:19;;;;;;;;;;;19.90;46.30;;;;;;5053934;28;19947;-67
2023/10/15 12:25:47;;;;;;;;;;;20.00;46.40;;;;;;5054694;28;19920;-67
2023/10/15 12:28:15;;;;;;;;;;;20.00;46.40;;;;;;5048259;28;20243;-65
2023/10/15 12:30:41;;;;;;;;;;;20.00;46.40;;;;;;5060907;28;19963;-65
2023/10/15 12:33:15;;;;;;;;;;;20.00;46.40;;;;;;5053812;28;19920;-65
2023/10/15 12:35:43;;;;;;;;;;;20.00;46.40;;;;;;5053427;28;19920;-65
2023/10/15 12:38:16;;;;;;;;;;;20.00;46.40;;;;;;5053694;28;19920;-66
2023/10/15 12:40:45;;;;;;;;;;;20.10;46.40;;;;;;5053513;28;19921;-65
2023/10/15 12:43:15;;;;;;;;;;;20.10;46.50;;;;;;5054366;28;19929;-66
2023/10/15 12:45:43;;;;;;;;;;;20.10;46.40;;;;;;5047116;28;20282;-66
2023/10/15 12:48:12;;;;;;;;;;;20.10;46.50;;;;;;5046277;28;19927;-66
2023/10/15 12:50:39;;;;;;;;;;;20.10;46.50;;;;;;5041228;28;19928;-62
2023/10/15 12:53:06;;;;;;;;;;;20.10;46.50;;;;;;5049239;28;19921;-69
2023/10/15 12:55:34;;;;;;;;;;;20.10;46.50;;;;;;5051370;28;19928;-68
2023/10/15 12:58:00;;;;;;;;;;;20.10;46.50;;;;;;5046541;28;20488;-67
2023/10/15 13:00:28;;;;;;;;;;;20.10;46.50;;;;;;5044989;28;20370;-66
2023/10/15 13:02:54;;;;;;;;;;;20.20;46.60;;;;;;5051169;28;19983;-66
2023/10/15 13:05:23;;;;;;;;;;;20.20;46.60;;;;;;5049737;28;19925;-68
2023/10/15 13:07:50;;;;;;;;;;;20.20;46.60;;;;;;5049693;28;19929;-63
2023/10/15 13:10:17;;;;;;;;;;;20.20;46.70;;;;;;5049346;28;19940;-61
2023/10/15 13:12:44;;;;;;;;;;;20.20;46.70;;;;;;5051939;28;19927;-62
2023/10/15 13:15:11;;;;;;;;;;;20.20;46.80;;;;;;5045476;28;19921;-65
2023/10/15 13:17:38;;;;;;;;;;;20.20;46.70;;;;;;5045354;28;20581;-64
2023/10/15 13:20:06;;;;;;;;;;;20.20;46.70;;;;;;5044764;28;19929;-65
2023/10/15 13:22:34;;;;;;;;;;;20.20;46.70;;;;;;5046777;28;19921;-60
2023/10/15 13:25:01;;;;;;;;;;;20.20;46.70;;;;;;5046571;28;19931;-63
2023/10/15 13:27:28;;;;;;;;;;;20.20;46.70;;;;;;5034044;28;19947;-62
2023/10/15 13:29:56;;;;;;;;;;;20.20;46.60;;;;;;5033068;28;19963;-60
2023/10/15 13:32:22;;;;;;;;;;;20.20;46.60;;;;;;5047582;28;20278;-60
2023/10/15 13:34:49;;;;;;;;;;;20.20;46.60;;;;;;5048440;28;19925;-61
2023/10/15 13:37:17;;;;;;;;;;;20.20;46.60;;;;;;5051341;28;19927;-61
2023/10/15 13:39:47;;;;;;;;;;;20.20;47.20;;;;;;5051543;28;19932;-63
2023/10/15 13:42:14;;;;;;;;;;;20.20;46.60;;;;;;5050716;28;19960;-63
2023/10/15 13:44:41;;;;;;;;;;;20.20;46.70;;;;;;5051132;28;19920;-62
2023/10/15 13:47:08;;;;;;;;;;;20.20;46.80;;;;;;5051150;28;19932;-67
2023/10/15 13:49:35;;;;;;;;;;;20.10;46.70;;;;;;5050970;28;19921;-64
2023/10/15 13:52:03;;;;;;;;;;;20.10;46.70;;;;;;5051336;28;19924;-65
2023/10/15 13:54:30;;;;;;;;;;;20.10;46.60;;;;;;5055892;28;19936;-65
2023/10/15 13:56:59;;;;;;;;;;;20.10;46.60;;;;;;5050994;28;19929;-66
2023/10/15 13:59:25;;;;;;;;;;;20.10;46.60;;;;;;5051025;28;19921;-67
2023/10/15 14:01:52;;;;;;;;;;;20.10;46.60;;;;;;5052203;28;19966;-65
2023/10/15 14:04:19;;;;;;;;;;;20.10;46.60;;;;;;5045410;28;19963;-65
2023/10/15 14:06:46;;;;;;;;;;;20.10;46.60;;;;;;5041307;28;19921;-65
2023/10/15 14:09:15;;;;;;;;;;;20.10;46.60;;;;;;5045853;28;19931;-65
2023/10/15 14:11:42;;;;;;;;;;;20.10;46.60;;;;;;5051059;28;19921;-67
2023/10/15 14:14:10;;;;;;;;;;;20.10;46.60;;;;;;5043645;28;20420;-64
2023/10/15 14:16:38;;;;;;;;;;;20.10;46.60;;;;;;5050712;28;19921;-64
2023/10/15 14:19:05;;;;;;;;;;;20.10;46.60;;;;;;5050907;28;19920;-66
2023/10/15 14:21:34;;;;;;;;;;;20.10;46.60;;;;;;5050548;28;19928;-65
2023/10/15 14:24:00;;;;;;;;;;;20.10;46.60;;;;;;5042924;28;19999;-67